sensor_id;sensor_type;location;lat;lon;timestamp;P1;durP1;ratioP1;P2;durP2;ratioP2
20110;SDS011;10216;42.658;23.248;2022-09-09T00:03:54;10.10;;;9.10;;
20110;SDS011;10216;42.658;23.248;2022-09-09T00:06:29;11.23;;;10.13;;
20110;SDS011;10216;42.658;23.248;2022-09-09T00:09:00;10.70;;;9.70;;
20110;SDS011;10216;42.658;23.248;2022-09-09T00:11:36;11.17;;;10.07;;
20110;SDS011;10216;42.658;23.248;2022-09-09T00:14:37;11.80;;;10.60;;
20110;SDS011;10216;42.658;23.248;2022-09-09T00:17:24;11.97;;;10.37;;
20110;SDS011;10216;42.658;23.248;2022-09-09T00:19:56;10.73;;;9.53;;
20110;SDS011;10216;42.658;23.248;2022-09-09T00:22:40;10.73;;;9.63;;
20110;SDS011;10216;42.658;23.248;2022-09-09T00:25:19;12.50;;;10.13;;
20110;SDS011;10216;42.658;23.248;2022-09-09T00:27:52;10.60;;;9.50;;
20110;SDS011;10216;42.658;23.248;2022-09-09T00:32:49;10.83;;;9.73;;
20110;SDS011;10216;42.658;23.248;2022-09-09T00:35:23;10.87;;;9.50;;
20110;SDS011;10216;42.658;23.248;2022-09-09T00:37:53;10.63;;;9.60;;
20110;SDS011;10216;42.658;23.248;2022-09-09T00:42:48;9.90;;;8.90;;
20110;SDS011;10216;42.658;23.248;2022-09-09T00:48:09;10.03;;;9.20;;
20110;SDS011;10216;42.658;23.248;2022-09-09T00:53:17;10.10;;;9.13;;
20110;SDS011;10216;42.658;23.248;2022-09-09T00:58:13;11.33;;;9.63;;
20110;SDS011;10216;42.658;23.248;2022-09-09T01:00:43;10.30;;;9.30;;
20110;SDS011;10216;42.658;23.248;2022-09-09T01:05:46;10.33;;;9.33;;
20110;SDS011;10216;42.658;23.248;2022-09-09T01:13:49;11.30;;;10.20;;
20110;SDS011;10216;42.658;23.248;2022-09-09T01:16:23;12.13;;;9.33;;
20110;SDS011;10216;42.658;23.248;2022-09-09T01:18:49;11.73;;;10.53;;
20110;SDS011;10216;42.658;23.248;2022-09-09T01:22:03;11.50;;;10.40;;
20110;SDS011;10216;42.658;23.248;2022-09-09T01:24:14;10.40;;;9.50;;
20110;SDS011;10216;42.658;23.248;2022-09-09T01:26:46;10.70;;;9.53;;
20110;SDS011;10216;42.658;23.248;2022-09-09T01:29:14;11.20;;;10.27;;
20110;SDS011;10216;42.658;23.248;2022-09-09T01:32:35;12.83;;;10.07;;
20110;SDS011;10216;42.658;23.248;2022-09-09T01:34:47;10.63;;;9.60;;
20110;SDS011;10216;42.658;23.248;2022-09-09T01:37:12;10.40;;;9.50;;
20110;SDS011;10216;42.658;23.248;2022-09-09T01:39:38;11.07;;;9.93;;
20110;SDS011;10216;42.658;23.248;2022-09-09T01:42:08;10.67;;;9.63;;
20110;SDS011;10216;42.658;23.248;2022-09-09T01:44:35;11.33;;;10.23;;
20110;SDS011;10216;42.658;23.248;2022-09-09T01:47:01;10.50;;;9.60;;
20110;SDS011;10216;42.658;23.248;2022-09-09T01:49:27;11.43;;;10.17;;
20110;SDS011;10216;42.658;23.248;2022-09-09T01:51:53;11.20;;;10.10;;
20110;SDS011;10216;42.658;23.248;2022-09-09T01:54:21;11.00;;;9.73;;
20110;SDS011;10216;42.658;23.248;2022-09-09T01:57:13;11.23;;;10.13;;
20110;SDS011;10216;42.658;23.248;2022-09-09T02:02:51;10.80;;;9.87;;
20110;SDS011;10216;42.658;23.248;2022-09-09T02:05:38;12.00;;;10.33;;
20110;SDS011;10216;42.658;23.248;2022-09-09T02:08:10;11.60;;;10.60;;
20110;SDS011;10216;42.658;23.248;2022-09-09T02:13:18;11.53;;;10.23;;
20110;SDS011;10216;42.658;23.248;2022-09-09T02:15:56;11.77;;;10.50;;
20110;SDS011;10216;42.658;23.248;2022-09-09T02:18:29;11.60;;;10.50;;
20110;SDS011;10216;42.658;23.248;2022-09-09T02:20:59;11.50;;;10.50;;
20110;SDS011;10216;42.658;23.248;2022-09-09T02:23:27;11.93;;;10.40;;
20110;SDS011;10216;42.658;23.248;2022-09-09T02:25:54;11.20;;;10.23;;
20110;SDS011;10216;42.658;23.248;2022-09-09T02:28:23;11.47;;;10.10;;
20110;SDS011;10216;42.658;23.248;2022-09-09T02:30:53;11.57;;;10.47;;
20110;SDS011;10216;42.658;23.248;2022-09-09T02:33:20;11.70;;;10.60;;
20110;SDS011;10216;42.658;23.248;2022-09-09T02:35:48;11.47;;;10.47;;
20110;SDS011;10216;42.658;23.248;2022-09-09T02:38:16;11.90;;;10.80;;
20110;SDS011;10216;42.658;23.248;2022-09-09T02:40:42;12.17;;;10.87;;
20110;SDS011;10216;42.658;23.248;2022-09-09T02:43:08;11.60;;;10.40;;
20110;SDS011;10216;42.658;23.248;2022-09-09T02:45:39;12.07;;;10.90;;
20110;SDS011;10216;42.658;23.248;2022-09-09T02:48:26;11.93;;;10.83;;
20110;SDS011;10216;42.658;23.248;2022-09-09T02:51:22;12.03;;;10.83;;
20110;SDS011;10216;42.658;23.248;2022-09-09T02:56:25;12.53;;;11.23;;
20110;SDS011;10216;42.658;23.248;2022-09-09T02:58:53;12.60;;;11.07;;
20110;SDS011;10216;42.658;23.248;2022-09-09T03:01:19;12.83;;;11.70;;
20110;SDS011;10216;42.658;23.248;2022-09-09T03:03:45;13.03;;;11.77;;
20110;SDS011;10216;42.658;23.248;2022-09-09T03:06:11;11.63;;;10.53;;
20110;SDS011;10216;42.658;23.248;2022-09-09T03:08:37;12.90;;;11.80;;
20110;SDS011;10216;42.658;23.248;2022-09-09T03:11:03;12.80;;;11.70;;
20110;SDS011;10216;42.658;23.248;2022-09-09T03:13:29;13.33;;;12.13;;
20110;SDS011;10216;42.658;23.248;2022-09-09T03:15:54;13.17;;;11.80;;
20110;SDS011;10216;42.658;23.248;2022-09-09T03:18:20;13.07;;;11.77;;
20110;SDS011;10216;42.658;23.248;2022-09-09T03:20:45;12.97;;;11.83;;
20110;SDS011;10216;42.658;23.248;2022-09-09T03:23:13;12.40;;;11.20;;
20110;SDS011;10216;42.658;23.248;2022-09-09T03:25:39;13.00;;;11.73;;
20110;SDS011;10216;42.658;23.248;2022-09-09T03:28:11;12.43;;;11.20;;
20110;SDS011;10216;42.658;23.248;2022-09-09T03:30:36;12.90;;;11.63;;
20110;SDS011;10216;42.658;23.248;2022-09-09T03:33:02;12.63;;;11.53;;
20110;SDS011;10216;42.658;23.248;2022-09-09T03:35:28;12.57;;;11.37;;
20110;SDS011;10216;42.658;23.248;2022-09-09T03:37:54;12.60;;;11.30;;
20110;SDS011;10216;42.658;23.248;2022-09-09T03:40:20;12.13;;;10.90;;
20110;SDS011;10216;42.658;23.248;2022-09-09T03:42:47;12.57;;;11.37;;
20110;SDS011;10216;42.658;23.248;2022-09-09T03:45:13;12.20;;;11.03;;
20110;SDS011;10216;42.658;23.248;2022-09-09T03:47:39;12.63;;;11.33;;
20110;SDS011;10216;42.658;23.248;2022-09-09T03:50:07;12.03;;;10.80;;
20110;SDS011;10216;42.658;23.248;2022-09-09T03:52:38;12.57;;;11.20;;
20110;SDS011;10216;42.658;23.248;2022-09-09T03:55:05;13.40;;;12.00;;
20110;SDS011;10216;42.658;23.248;2022-09-09T03:57:31;12.83;;;11.53;;
20110;SDS011;10216;42.658;23.248;2022-09-09T03:59:59;13.23;;;11.93;;
20110;SDS011;10216;42.658;23.248;2022-09-09T04:02:26;12.83;;;11.63;;
20110;SDS011;10216;42.658;23.248;2022-09-09T04:04:51;14.07;;;12.57;;
20110;SDS011;10216;42.658;23.248;2022-09-09T04:07:16;12.37;;;11.27;;
20110;SDS011;10216;42.658;23.248;2022-09-09T04:09:42;12.20;;;11.20;;
20110;SDS011;10216;42.658;23.248;2022-09-09T04:12:08;14.67;;;12.97;;
20110;SDS011;10216;42.658;23.248;2022-09-09T04:14:36;13.03;;;11.63;;
20110;SDS011;10216;42.658;23.248;2022-09-09T04:17:01;13.47;;;12.13;;
20110;SDS011;10216;42.658;23.248;2022-09-09T04:19:31;13.17;;;11.87;;
20110;SDS011;10216;42.658;23.248;2022-09-09T04:21:56;13.70;;;11.87;;
20110;SDS011;10216;42.658;23.248;2022-09-09T04:24:22;12.97;;;11.80;;
20110;SDS011;10216;42.658;23.248;2022-09-09T04:26:47;13.07;;;11.87;;
20110;SDS011;10216;42.658;23.248;2022-09-09T04:29:14;13.50;;;12.20;;
20110;SDS011;10216;42.658;23.248;2022-09-09T04:31:39;12.93;;;11.83;;
20110;SDS011;10216;42.658;23.248;2022-09-09T04:34:07;13.60;;;12.43;;
20110;SDS011;10216;42.658;23.248;2022-09-09T04:36:33;13.70;;;12.30;;
20110;SDS011;10216;42.658;23.248;2022-09-09T04:38:59;14.47;;;13.03;;
20110;SDS011;10216;42.658;23.248;2022-09-09T04:41:26;15.20;;;13.63;;
20110;SDS011;10216;42.658;23.248;2022-09-09T04:43:52;13.63;;;12.33;;
20110;SDS011;10216;42.658;23.248;2022-09-09T04:46:18;17.20;;;13.87;;
20110;SDS011;10216;42.658;23.248;2022-09-09T04:48:44;14.40;;;13.07;;
20110;SDS011;10216;42.658;23.248;2022-09-09T04:51:11;16.20;;;12.47;;
20110;SDS011;10216;42.658;23.248;2022-09-09T04:53:38;14.13;;;12.63;;
20110;SDS011;10216;42.658;23.248;2022-09-09T04:56:14;13.63;;;12.27;;
20110;SDS011;10216;42.658;23.248;2022-09-09T04:58:43;13.83;;;12.43;;
20110;SDS011;10216;42.658;23.248;2022-09-09T05:01:10;15.57;;;14.10;;
20110;SDS011;10216;42.658;23.248;2022-09-09T05:03:37;15.30;;;13.87;;
20110;SDS011;10216;42.658;23.248;2022-09-09T05:06:06;14.50;;;13.10;;
20110;SDS011;10216;42.658;23.248;2022-09-09T05:08:36;14.67;;;13.27;;
20110;SDS011;10216;42.658;23.248;2022-09-09T05:11:04;14.40;;;12.80;;
20110;SDS011;10216;42.658;23.248;2022-09-09T05:13:39;16.57;;;14.97;;
20110;SDS011;10216;42.658;23.248;2022-09-09T05:16:05;16.40;;;14.70;;
20110;SDS011;10216;42.658;23.248;2022-09-09T05:18:30;15.67;;;14.27;;
20110;SDS011;10216;42.658;23.248;2022-09-09T05:20:59;16.17;;;14.67;;
20110;SDS011;10216;42.658;23.248;2022-09-09T05:23:25;15.90;;;14.40;;
20110;SDS011;10216;42.658;23.248;2022-09-09T05:25:56;15.77;;;14.17;;
20110;SDS011;10216;42.658;23.248;2022-09-09T05:28:23;17.57;;;14.53;;
20110;SDS011;10216;42.658;23.248;2022-09-09T05:30:57;16.70;;;13.93;;
20110;SDS011;10216;42.658;23.248;2022-09-09T05:33:24;16.60;;;13.63;;
20110;SDS011;10216;42.658;23.248;2022-09-09T05:35:57;14.53;;;13.13;;
20110;SDS011;10216;42.658;23.248;2022-09-09T05:38:26;15.93;;;14.00;;
20110;SDS011;10216;42.658;23.248;2022-09-09T05:40:52;16.70;;;15.00;;
20110;SDS011;10216;42.658;23.248;2022-09-09T05:43:19;18.70;;;16.60;;
20110;SDS011;10216;42.658;23.248;2022-09-09T05:45:45;16.83;;;15.13;;
20110;SDS011;10216;42.658;23.248;2022-09-09T05:48:12;15.90;;;14.20;;
20110;SDS011;10216;42.658;23.248;2022-09-09T05:50:38;18.40;;;14.50;;
20110;SDS011;10216;42.658;23.248;2022-09-09T05:53:04;21.53;;;14.87;;
20110;SDS011;10216;42.658;23.248;2022-09-09T05:55:29;17.23;;;15.30;;
20110;SDS011;10216;42.658;23.248;2022-09-09T05:57:54;15.30;;;13.90;;
20110;SDS011;10216;42.658;23.248;2022-09-09T06:00:20;15.57;;;14.10;;
20110;SDS011;10216;42.658;23.248;2022-09-09T06:02:50;17.87;;;14.80;;
20110;SDS011;10216;42.658;23.248;2022-09-09T06:05:17;17.20;;;14.97;;
20110;SDS011;10216;42.658;23.248;2022-09-09T06:07:43;17.47;;;14.67;;
20110;SDS011;10216;42.658;23.248;2022-09-09T06:10:09;16.67;;;14.93;;
20110;SDS011;10216;42.658;23.248;2022-09-09T06:12:35;17.77;;;13.50;;
20110;SDS011;10216;42.658;23.248;2022-09-09T06:15:01;18.87;;;14.87;;
20110;SDS011;10216;42.658;23.248;2022-09-09T06:17:27;17.50;;;14.40;;
20110;SDS011;10216;42.658;23.248;2022-09-09T06:19:52;19.10;;;14.40;;
20110;SDS011;10216;42.658;23.248;2022-09-09T06:22:18;18.00;;;13.80;;
20110;SDS011;10216;42.658;23.248;2022-09-09T06:24:44;15.97;;;14.23;;
20110;SDS011;10216;42.658;23.248;2022-09-09T06:27:09;19.67;;;14.63;;
20110;SDS011;10216;42.658;23.248;2022-09-09T06:29:35;15.20;;;13.80;;
20110;SDS011;10216;42.658;23.248;2022-09-09T06:32:01;14.87;;;13.37;;
20110;SDS011;10216;42.658;23.248;2022-09-09T06:34:28;15.47;;;12.70;;
20110;SDS011;10216;42.658;23.248;2022-09-09T06:36:53;16.23;;;13.50;;
20110;SDS011;10216;42.658;23.248;2022-09-09T06:39:22;16.33;;;14.73;;
20110;SDS011;10216;42.658;23.248;2022-09-09T06:41:48;18.67;;;14.53;;
20110;SDS011;10216;42.658;23.248;2022-09-09T06:44:14;16.07;;;13.27;;
20110;SDS011;10216;42.658;23.248;2022-09-09T06:46:40;18.67;;;14.57;;
20110;SDS011;10216;42.658;23.248;2022-09-09T06:49:05;21.47;;;15.17;;
20110;SDS011;10216;42.658;23.248;2022-09-09T06:51:34;17.43;;;14.77;;
20110;SDS011;10216;42.658;23.248;2022-09-09T06:54:01;17.27;;;15.33;;
20110;SDS011;10216;42.658;23.248;2022-09-09T06:56:30;16.00;;;14.13;;
20110;SDS011;10216;42.658;23.248;2022-09-09T06:58:56;15.37;;;13.70;;
20110;SDS011;10216;42.658;23.248;2022-09-09T07:01:29;19.30;;;15.23;;
20110;SDS011;10216;42.658;23.248;2022-09-09T07:03:56;14.07;;;11.50;;
20110;SDS011;10216;42.658;23.248;2022-09-09T07:06:27;16.83;;;12.30;;
20110;SDS011;10216;42.658;23.248;2022-09-09T07:08:59;14.03;;;12.30;;
20110;SDS011;10216;42.658;23.248;2022-09-09T07:11:27;14.33;;;11.93;;
20110;SDS011;10216;42.658;23.248;2022-09-09T07:13:54;15.67;;;12.67;;
20110;SDS011;10216;42.658;23.248;2022-09-09T07:16:20;11.70;;;10.50;;
20110;SDS011;10216;42.658;23.248;2022-09-09T07:18:49;16.27;;;12.77;;
20110;SDS011;10216;42.658;23.248;2022-09-09T07:21:15;12.57;;;11.23;;
20110;SDS011;10216;42.658;23.248;2022-09-09T07:23:41;12.60;;;10.77;;
20110;SDS011;10216;42.658;23.248;2022-09-09T07:26:17;15.70;;;12.50;;
20110;SDS011;10216;42.658;23.248;2022-09-09T07:28:44;14.00;;;12.43;;
20110;SDS011;10216;42.658;23.248;2022-09-09T07:31:13;15.37;;;11.87;;
20110;SDS011;10216;42.658;23.248;2022-09-09T07:33:41;14.77;;;13.30;;
20110;SDS011;10216;42.658;23.248;2022-09-09T07:36:09;14.40;;;12.93;;
20110;SDS011;10216;42.658;23.248;2022-09-09T07:38:43;12.80;;;11.60;;
20110;SDS011;10216;42.658;23.248;2022-09-09T07:41:12;16.50;;;12.53;;
20110;SDS011;10216;42.658;23.248;2022-09-09T07:43:47;15.00;;;12.53;;
20110;SDS011;10216;42.658;23.248;2022-09-09T07:46:14;12.83;;;11.43;;
20110;SDS011;10216;42.658;23.248;2022-09-09T07:48:48;13.07;;;11.57;;
20110;SDS011;10216;42.658;23.248;2022-09-09T07:51:20;17.87;;;11.63;;
20110;SDS011;10216;42.658;23.248;2022-09-09T07:53:48;12.53;;;11.23;;
20110;SDS011;10216;42.658;23.248;2022-09-09T07:56:20;12.47;;;11.17;;
20110;SDS011;10216;42.658;23.248;2022-09-09T07:58:49;13.80;;;11.20;;
20110;SDS011;10216;42.658;23.248;2022-09-09T08:01:16;14.80;;;11.70;;
20110;SDS011;10216;42.658;23.248;2022-09-09T08:03:44;12.33;;;10.80;;
20110;SDS011;10216;42.658;23.248;2022-09-09T08:06:11;15.23;;;10.90;;
20110;SDS011;10216;42.658;23.248;2022-09-09T08:08:38;13.93;;;11.37;;
20110;SDS011;10216;42.658;23.248;2022-09-09T08:11:07;13.73;;;11.27;;
20110;SDS011;10216;42.658;23.248;2022-09-09T08:13:35;14.07;;;10.90;;
20110;SDS011;10216;42.658;23.248;2022-09-09T08:16:09;12.73;;;11.25;;
20110;SDS011;10216;42.658;23.248;2022-09-09T08:18:39;12.43;;;11.13;;
20110;SDS011;10216;42.658;23.248;2022-09-09T08:21:05;11.88;;;10.48;;
20110;SDS011;10216;42.658;23.248;2022-09-09T08:23:36;14.13;;;10.95;;
20110;SDS011;10216;42.658;23.248;2022-09-09T08:26:08;13.35;;;11.23;;
20110;SDS011;10216;42.658;23.248;2022-09-09T08:28:42;13.85;;;10.70;;
20110;SDS011;10216;42.658;23.248;2022-09-09T08:31:15;12.23;;;10.32;;
20110;SDS011;10216;42.658;23.248;2022-09-09T08:33:43;11.75;;;10.00;;
20110;SDS011;10216;42.658;23.248;2022-09-09T08:36:12;12.68;;;10.40;;
20110;SDS011;10216;42.658;23.248;2022-09-09T08:38:48;11.02;;;9.70;;
20110;SDS011;10216;42.658;23.248;2022-09-09T08:46:42;15.55;;;10.27;;
20110;SDS011;10216;42.658;23.248;2022-09-09T08:51:59;14.18;;;9.77;;
20110;SDS011;10216;42.658;23.248;2022-09-09T08:54:26;13.38;;;9.52;;
20110;SDS011;10216;42.658;23.248;2022-09-09T08:56:58;10.63;;;9.52;;
20110;SDS011;10216;42.658;23.248;2022-09-09T08:59:23;11.50;;;8.48;;
20110;SDS011;10216;42.658;23.248;2022-09-09T09:07:18;12.57;;;8.05;;
20110;SDS011;10216;42.658;23.248;2022-09-09T09:10:04;14.18;;;9.15;;
20110;SDS011;10216;42.658;23.248;2022-09-09T09:12:44;10.07;;;8.40;;
20110;SDS011;10216;42.658;23.248;2022-09-09T09:15:36;10.70;;;8.85;;
20110;SDS011;10216;42.658;23.248;2022-09-09T09:18:01;8.43;;;7.57;;
20110;SDS011;10216;42.658;23.248;2022-09-09T09:20:36;8.98;;;7.60;;
20110;SDS011;10216;42.658;23.248;2022-09-09T09:23:16;10.95;;;7.65;;
20110;SDS011;10216;42.658;23.248;2022-09-09T09:25:47;10.77;;;7.90;;
20110;SDS011;10216;42.658;23.248;2022-09-09T09:28:20;8.80;;;7.32;;
20110;SDS011;10216;42.658;23.248;2022-09-09T09:36:15;12.07;;;6.85;;
20110;SDS011;10216;42.658;23.248;2022-09-09T09:38:57;10.32;;;6.65;;
20110;SDS011;10216;42.658;23.248;2022-09-09T09:41:40;9.48;;;6.63;;
20110;SDS011;10216;42.658;23.248;2022-09-09T09:44:22;12.00;;;6.25;;
20110;SDS011;10216;42.658;23.248;2022-09-09T09:49:58;8.13;;;6.00;;
20110;SDS011;10216;42.658;23.248;2022-09-09T09:52:27;7.38;;;5.95;;
20110;SDS011;10216;42.658;23.248;2022-09-09T09:54:55;8.70;;;6.15;;
20110;SDS011;10216;42.658;23.248;2022-09-09T09:57:24;12.18;;;6.15;;
20110;SDS011;10216;42.658;23.248;2022-09-09T10:00:03;8.68;;;6.00;;
20110;SDS011;10216;42.658;23.248;2022-09-09T10:02:42;9.98;;;6.65;;
20110;SDS011;10216;42.658;23.248;2022-09-09T10:05:14;10.80;;;6.30;;
20110;SDS011;10216;42.658;23.248;2022-09-09T10:07:41;7.45;;;6.15;;
20110;SDS011;10216;42.658;23.248;2022-09-09T10:10:12;8.77;;;6.30;;
20110;SDS011;10216;42.658;23.248;2022-09-09T10:37:46;7.93;;;6.20;;
20110;SDS011;10216;42.658;23.248;2022-09-09T10:42:55;9.35;;;7.00;;
20110;SDS011;10216;42.658;23.248;2022-09-09T10:45:33;10.07;;;6.47;;
20110;SDS011;10216;42.658;23.248;2022-09-09T10:48:30;17.67;;;6.47;;
20110;SDS011;10216;42.658;23.248;2022-09-09T10:53:53;10.25;;;7.22;;
20110;SDS011;10216;42.658;23.248;2022-09-09T10:56:24;10.98;;;7.22;;
20110;SDS011;10216;42.658;23.248;2022-09-09T11:01:24;12.88;;;7.07;;
20110;SDS011;10216;42.658;23.248;2022-09-09T11:03:55;13.10;;;7.78;;
20110;SDS011;10216;42.658;23.248;2022-09-09T11:06:31;13.35;;;7.53;;
20110;SDS011;10216;42.658;23.248;2022-09-09T11:09:05;10.60;;;7.05;;
20110;SDS011;10216;42.658;23.248;2022-09-09T11:11:39;8.68;;;7.78;;
20110;SDS011;10216;42.658;23.248;2022-09-09T11:14:15;12.93;;;7.95;;
20110;SDS011;10216;42.658;23.248;2022-09-09T11:19:38;10.02;;;7.30;;
20110;SDS011;10216;42.658;23.248;2022-09-09T11:22:51;8.10;;;7.30;;
20110;SDS011;10216;42.658;23.248;2022-09-09T11:24:52;11.35;;;7.10;;
20110;SDS011;10216;42.658;23.248;2022-09-09T11:41:11;9.32;;;6.55;;
20110;SDS011;10216;42.658;23.248;2022-09-09T11:43:45;6.53;;;5.93;;
20110;SDS011;10216;42.658;23.248;2022-09-09T11:46:16;8.48;;;6.82;;
20110;SDS011;10216;42.658;23.248;2022-09-09T11:48:45;7.72;;;6.95;;
20110;SDS011;10216;42.658;23.248;2022-09-09T11:53:53;8.93;;;6.70;;
20110;SDS011;10216;42.658;23.248;2022-09-09T12:01:34;9.88;;;6.72;;
20110;SDS011;10216;42.658;23.248;2022-09-09T12:06:52;11.02;;;6.57;;
20110;SDS011;10216;42.658;23.248;2022-09-09T12:12:04;8.80;;;6.60;;
20110;SDS011;10216;42.658;23.248;2022-09-09T12:14:36;10.02;;;6.55;;
20110;SDS011;10216;42.658;23.248;2022-09-09T12:17:21;13.80;;;6.50;;
20110;SDS011;10216;42.658;23.248;2022-09-09T12:19:48;9.52;;;5.90;;
20110;SDS011;10216;42.658;23.248;2022-09-09T12:25:35;13.32;;;6.47;;
20110;SDS011;10216;42.658;23.248;2022-09-09T12:36:57;10.93;;;5.18;;
20110;SDS011;10216;42.658;23.248;2022-09-09T12:42:22;9.95;;;4.32;;
20110;SDS011;10216;42.658;23.248;2022-09-09T12:45:15;6.97;;;4.13;;
20110;SDS011;10216;42.658;23.248;2022-09-09T12:47:51;5.60;;;4.45;;
20110;SDS011;10216;42.658;23.248;2022-09-09T12:50:19;8.82;;;4.32;;
20110;SDS011;10216;42.658;23.248;2022-09-09T12:52:50;7.57;;;4.68;;
20110;SDS011;10216;42.658;23.248;2022-09-09T12:55:20;9.35;;;4.78;;
20110;SDS011;10216;42.658;23.248;2022-09-09T12:57:50;8.07;;;4.35;;
20110;SDS011;10216;42.658;23.248;2022-09-09T13:00:17;10.43;;;4.47;;
20110;SDS011;10216;42.658;23.248;2022-09-09T13:02:52;7.88;;;4.53;;
20110;SDS011;10216;42.658;23.248;2022-09-09T13:05:24;8.63;;;4.50;;
20110;SDS011;10216;42.658;23.248;2022-09-09T13:07:49;5.55;;;4.60;;
20110;SDS011;10216;42.658;23.248;2022-09-09T13:10:21;7.25;;;4.93;;
20110;SDS011;10216;42.658;23.248;2022-09-09T13:12:51;7.97;;;5.45;;
20110;SDS011;10216;42.658;23.248;2022-09-09T13:15:22;10.25;;;5.13;;
20110;SDS011;10216;42.658;23.248;2022-09-09T13:17:58;12.60;;;5.30;;
20110;SDS011;10216;42.658;23.248;2022-09-09T13:20:28;10.52;;;5.85;;
20110;SDS011;10216;42.658;23.248;2022-09-09T13:22:54;9.02;;;6.05;;
20110;SDS011;10216;42.658;23.248;2022-09-09T13:25:22;8.65;;;6.55;;
20110;SDS011;10216;42.658;23.248;2022-09-09T13:27:54;12.57;;;7.20;;
20110;SDS011;10216;42.658;23.248;2022-09-09T13:35:47;12.32;;;7.28;;
20110;SDS011;10216;42.658;23.248;2022-09-09T13:38:24;10.18;;;6.45;;
20110;SDS011;10216;42.658;23.248;2022-09-09T13:40:57;12.30;;;6.93;;
20110;SDS011;10216;42.658;23.248;2022-09-09T13:43:27;11.40;;;7.10;;
20110;SDS011;10216;42.658;23.248;2022-09-09T13:48:21;10.27;;;7.10;;
20110;SDS011;10216;42.658;23.248;2022-09-09T13:50:54;12.57;;;7.93;;
20110;SDS011;10216;42.658;23.248;2022-09-09T13:53:24;9.60;;;7.18;;
20110;SDS011;10216;42.658;23.248;2022-09-09T13:55:49;8.90;;;7.05;;
20110;SDS011;10216;42.658;23.248;2022-09-09T13:58:16;10.32;;;6.90;;
20110;SDS011;10216;42.658;23.248;2022-09-09T14:00:43;13.25;;;7.35;;
20110;SDS011;10216;42.658;23.248;2022-09-09T14:03:09;12.50;;;7.13;;
20110;SDS011;10216;42.658;23.248;2022-09-09T14:05:35;10.60;;;6.60;;
20110;SDS011;10216;42.658;23.248;2022-09-09T14:08:00;8.35;;;5.78;;
20110;SDS011;10216;42.658;23.248;2022-09-09T14:10:31;10.00;;;6.15;;
20110;SDS011;10216;42.658;23.248;2022-09-09T14:12:57;8.55;;;6.15;;
20110;SDS011;10216;42.658;23.248;2022-09-09T14:15:22;9.52;;;6.85;;
20110;SDS011;10216;42.658;23.248;2022-09-09T14:17:48;10.23;;;7.00;;
20110;SDS011;10216;42.658;23.248;2022-09-09T14:20:14;9.23;;;6.78;;
20110;SDS011;10216;42.658;23.248;2022-09-09T14:22:42;11.32;;;7.03;;
20110;SDS011;10216;42.658;23.248;2022-09-09T14:25:08;11.23;;;7.05;;
20110;SDS011;10216;42.658;23.248;2022-09-09T14:27:34;8.98;;;7.15;;
20110;SDS011;10216;42.658;23.248;2022-09-09T14:29:59;9.63;;;7.15;;
20110;SDS011;10216;42.658;23.248;2022-09-09T14:32:26;15.13;;;6.95;;
20110;SDS011;10216;42.658;23.248;2022-09-09T14:34:52;8.55;;;6.70;;
20110;SDS011;10216;42.658;23.248;2022-09-09T14:37:17;10.93;;;6.78;;
20110;SDS011;10216;42.658;23.248;2022-09-09T14:39:43;13.88;;;7.38;;
20110;SDS011;10216;42.658;23.248;2022-09-09T14:42:12;10.80;;;6.63;;
20110;SDS011;10216;42.658;23.248;2022-09-09T14:44:38;10.38;;;7.07;;
20110;SDS011;10216;42.658;23.248;2022-09-09T14:47:05;9.57;;;7.28;;
20110;SDS011;10216;42.658;23.248;2022-09-09T14:49:30;10.85;;;7.03;;
20110;SDS011;10216;42.658;23.248;2022-09-09T14:51:56;11.07;;;6.90;;
20110;SDS011;10216;42.658;23.248;2022-09-09T14:54:22;11.18;;;7.60;;
20110;SDS011;10216;42.658;23.248;2022-09-09T14:56:48;9.40;;;6.72;;
20110;SDS011;10216;42.658;23.248;2022-09-09T14:59:13;8.60;;;6.65;;
20110;SDS011;10216;42.658;23.248;2022-09-09T15:01:38;11.10;;;6.95;;
20110;SDS011;10216;42.658;23.248;2022-09-09T15:04:04;13.25;;;7.32;;
20110;SDS011;10216;42.658;23.248;2022-09-09T15:06:31;10.00;;;7.35;;
20110;SDS011;10216;42.658;23.248;2022-09-09T15:08:59;10.18;;;7.82;;
20110;SDS011;10216;42.658;23.248;2022-09-09T15:11:29;10.50;;;7.78;;
20110;SDS011;10216;42.658;23.248;2022-09-09T15:13:57;13.40;;;7.15;;
20110;SDS011;10216;42.658;23.248;2022-09-09T15:16:24;13.63;;;7.47;;
20110;SDS011;10216;42.658;23.248;2022-09-09T15:18:52;11.20;;;7.47;;
20110;SDS011;10216;42.658;23.248;2022-09-09T15:21:20;10.18;;;6.57;;
20110;SDS011;10216;42.658;23.248;2022-09-09T15:23:47;12.40;;;7.32;;
20110;SDS011;10216;42.658;23.248;2022-09-09T15:26:13;8.85;;;6.72;;
20110;SDS011;10216;42.658;23.248;2022-09-09T15:28:40;13.02;;;5.70;;
20110;SDS011;10216;42.658;23.248;2022-09-09T15:33:32;11.05;;;7.05;;
20110;SDS011;10216;42.658;23.248;2022-09-09T15:35:58;9.55;;;6.68;;
20110;SDS011;10216;42.658;23.248;2022-09-09T15:38:24;13.25;;;6.13;;
20110;SDS011;10216;42.658;23.248;2022-09-09T15:40:53;13.63;;;7.40;;
20110;SDS011;10216;42.658;23.248;2022-09-09T15:43:20;11.80;;;7.35;;
20110;SDS011;10216;42.658;23.248;2022-09-09T15:45:48;9.25;;;7.00;;
20110;SDS011;10216;42.658;23.248;2022-09-09T15:48:19;7.43;;;6.63;;
20110;SDS011;10216;42.658;23.248;2022-09-09T15:51:01;6.28;;;5.68;;
20110;SDS011;10216;42.658;23.248;2022-09-09T15:53:28;9.35;;;6.80;;
20110;SDS011;10216;42.658;23.248;2022-09-09T15:55:54;9.63;;;6.63;;
20110;SDS011;10216;42.658;23.248;2022-09-09T15:58:20;11.50;;;6.65;;
20110;SDS011;10216;42.658;23.248;2022-09-09T16:00:46;10.63;;;7.32;;
20110;SDS011;10216;42.658;23.248;2022-09-09T16:03:11;10.18;;;6.97;;
20110;SDS011;10216;42.658;23.248;2022-09-09T16:05:37;10.73;;;7.20;;
20110;SDS011;10216;42.658;23.248;2022-09-09T16:08:02;10.70;;;7.30;;
20110;SDS011;10216;42.658;23.248;2022-09-09T16:10:29;10.67;;;7.10;;
20110;SDS011;10216;42.658;23.248;2022-09-09T16:12:55;12.40;;;7.70;;
20110;SDS011;10216;42.658;23.248;2022-09-09T16:15:21;10.07;;;7.30;;
20110;SDS011;10216;42.658;23.248;2022-09-09T16:17:48;12.10;;;7.77;;
20110;SDS011;10216;42.658;23.248;2022-09-09T16:20:13;12.17;;;7.87;;
20110;SDS011;10216;42.658;23.248;2022-09-09T16:22:39;10.20;;;7.37;;
20110;SDS011;10216;42.658;23.248;2022-09-09T16:25:05;10.53;;;7.33;;
20110;SDS011;10216;42.658;23.248;2022-09-09T16:27:31;8.87;;;7.23;;
20110;SDS011;10216;42.658;23.248;2022-09-09T16:29:56;12.33;;;8.33;;
20110;SDS011;10216;42.658;23.248;2022-09-09T16:32:22;11.60;;;6.90;;
20110;SDS011;10216;42.658;23.248;2022-09-09T16:34:48;9.87;;;7.43;;
20110;SDS011;10216;42.658;23.248;2022-09-09T16:37:13;10.47;;;7.43;;
20110;SDS011;10216;42.658;23.248;2022-09-09T16:39:38;12.33;;;8.07;;
20110;SDS011;10216;42.658;23.248;2022-09-09T16:42:04;11.50;;;7.80;;
20110;SDS011;10216;42.658;23.248;2022-09-09T16:44:29;11.60;;;7.60;;
20110;SDS011;10216;42.658;23.248;2022-09-09T16:46:55;15.13;;;8.07;;
20110;SDS011;10216;42.658;23.248;2022-09-09T16:49:21;8.87;;;7.97;;
20110;SDS011;10216;42.658;23.248;2022-09-09T16:51:47;10.73;;;8.17;;
20110;SDS011;10216;42.658;23.248;2022-09-09T16:54:15;10.57;;;7.70;;